Senshu Maru — JCIR — position and weather

sailwx.info

Track history (hours):
 
Tides and Currents Weather Stations Pressure Air Temp Water Temp Dewpoint Dewpoint Depression Visibility Wind Speed Wind Dir Waves Ship Positions

Oceanographic research ship Senshu Maru (Japan)

Detailed information on ship capabilities available from University of Delaware's Ocean Information Center.

Last reported at 2017-Feb-19 05:09 UTC. Time now 2017-Feb-22 13:07 UTC.
Position N 01°14' E 104°02'.

Length 283 m; beam 44.8 m.

Type: Ship (hazmat cat A). MMSI: 431023000.

Date/timePositionNaut miles runAvg speedWind from/ knotsBaromVisibWave heightAir tempDewpointWater temp
2017-Feb-19 05:09N 01°14' E 104°02'5 9.0
2017-Feb-19 04:33N 01°13' E 103°57'9 9.1
2017-Feb-19 03:33N 01°10' E 103°48'9 8.4
2017-Feb-19 02:32N 01°04' E 103°42'8 7.6
2017-Feb-19 01:32N 01°06' E 103°34'5 4.9
2017-Feb-19 00:31N 01°10' E 103°34'7 7.4
2017-Feb-18 23:33N 01°11' E 103°41'0 0.4
2017-Feb-18 22:32N 01°11' E 103°42'0 0.0
2017-Feb-18 21:31N 01°11' E 103°42'0 0.0
2017-Feb-18 20:28N 01°11' E 103°42'0 0.1
2017-Feb-18 19:31N 01°11' E 103°42'0 0.0
2017-Feb-18 18:31N 01°11' E 103°42'0 0.1
2017-Feb-18 17:22N 01°11' E 103°42'0 0.1
2017-Feb-18 16:22N 01°11' E 103°42'0 0.1
2017-Feb-18 15:31N 01°11' E 103°42'0 0.0
2017-Feb-18 14:31N 01°11' E 103°42'0 0.0
2017-Feb-18 13:31N 01°11' E 103°42'0 0.0
2017-Feb-18 12:31N 01°11' E 103°42'0 0.0
2017-Feb-18 11:31N 01°11' E 103°42'0 0.1
2017-Feb-18 10:31N 01°11' E 103°42'0 0.1
2017-Feb-18 09:31N 01°11' E 103°42'0 0.1
2017-Feb-18 08:28N 01°11' E 103°42'0 0.1
2017-Feb-18 07:31N 01°11' E 103°42'0 0.1
2017-Feb-18 06:31N 01°11' E 103°42'0 0.0
2017-Feb-18 05:31N 01°11' E 103°42'0 0.1
2017-Feb-18 04:25N 01°11' E 103°42'0 0.0
2017-Feb-18 03:28N 01°11' E 103°42'1 0.7
2017-Feb-18 02:33N 01°11' E 103°41'5 5.4
2017-Feb-18 01:33N 01°14' E 103°36'  
2017-Feb-13 03:29N 01°15' E 103°36'  
Track history (hours):
 
Tides and Currents Weather Stations Pressure Air Temp Water Temp Dewpoint Dewpoint Depression Visibility Wind Speed Wind Dir Waves Ship Positions

Oceanographic research ship Senshu Maru (Japan)

Detailed information on ship capabilities available from University of Delaware's Ocean Information Center.

Last reported at 2017-Feb-19 05:09 UTC. Time now 2017-Feb-22 13:07 UTC.
Position N 01°14' E 104°02'.

Length 283 m; beam 44.8 m.

Type: Ship (hazmat cat A). MMSI: 431023000.

Date/timePositionNaut miles runAvg speedWind from/ knotsBaromVisibWave heightAir tempDewpointWater temp
2017-Feb-19 05:09N 01°14' E 104°02'5 9.0
2017-Feb-19 04:33N 01°13' E 103°57'9 9.1
2017-Feb-19 03:33N 01°10' E 103°48'9 8.4
2017-Feb-19 02:32N 01°04' E 103°42'8 7.6
2017-Feb-19 01:32N 01°06' E 103°34'5 4.9
2017-Feb-19 00:31N 01°10' E 103°34'7 7.4
2017-Feb-18 23:33N 01°11' E 103°41'0 0.4
2017-Feb-18 22:32N 01°11' E 103°42'0 0.0
2017-Feb-18 21:31N 01°11' E 103°42'0 0.0
2017-Feb-18 20:28N 01°11' E 103°42'0 0.1
2017-Feb-18 19:31N 01°11' E 103°42'0 0.0
2017-Feb-18 18:31N 01°11' E 103°42'0 0.1
2017-Feb-18 17:22N 01°11' E 103°42'0 0.1
2017-Feb-18 16:22N 01°11' E 103°42'0 0.1
2017-Feb-18 15:31N 01°11' E 103°42'0 0.0
2017-Feb-18 14:31N 01°11' E 103°42'0 0.0
2017-Feb-18 13:31N 01°11' E 103°42'0 0.0
2017-Feb-18 12:31N 01°11' E 103°42'0 0.0
2017-Feb-18 11:31N 01°11' E 103°42'0 0.1
2017-Feb-18 10:31N 01°11' E 103°42'0 0.1
2017-Feb-18 09:31N 01°11' E 103°42'0 0.1
2017-Feb-18 08:28N 01°11' E 103°42'0 0.1
2017-Feb-18 07:31N 01°11' E 103°42'0 0.1
2017-Feb-18 06:31N 01°11' E 103°42'0 0.0
2017-Feb-18 05:31N 01°11' E 103°42'0 0.1
2017-Feb-18 04:25N 01°11' E 103°42'0 0.0
2017-Feb-18 03:28N 01°11' E 103°42'1 0.7
2017-Feb-18 02:33N 01°11' E 103°41'5 5.4
2017-Feb-18 01:33N 01°14' E 103°36'  
2017-Feb-13 03:29N 01°15' E 103°36'  

Dump ship's entire track history